Aeroporto :
LOGIN :

Iscrizione | Disclaimer

   EN    FR    IT 

 










Sommario :    VFR   VFR Marginale   IFR   IFR Intensivo   IFR Molto Intensivo
Visibilità : 
Base nubi : 
>= 8 km
>= 3000ft
5 / 8 km
1000 / 3000 ft
1500m / 5 km
500 / 1000 ft
800 / 1500m
200 / 500 ft
< 800m
< 200 ft
Simboli :   Temporali  Nebbia  Neve Forte  Precipitazioni Forti  Vento > 20 kt
SIGMETs :   Varie  Temporali  Ghiacco  Turbolenza  Onda orograficha  Ceneri Vulcaniche






- Altitudine del aeroporto : 17 ft
- Codice IATA : MPL


LFMT - Montpellier Méditerranée

ULTIMO METAR :
  • 171430Z AUTO VRB03KT 9999 BKN017 OVC030 14/12 Q1024 TEMPO RADZ OVC008

METARs OBSOLETI :
  • 171400Z AUTO 16005KT 9999 OVC019 14/12 Q1024 TEMPO RADZ OVC008
  • 171330Z AUTO 14007KT 9999 OVC018 14/12 Q1024 TEMPO RADZ OVC008
  • 171300Z AUTO 13008KT 9999 BKN010 BKN014 OVC025 14/12 Q1024 TEMPO RADZ
  • 171230Z AUTO 13009KT 9999 FEW008 BKN023 BKN044 14/12 Q1024 TEMPO RADZ OVC008
  • 171200Z AUTO 13009KT 9999 FEW008 BKN013 OVC021 14/13 Q1025 TEMPO RADZ OVC008

TAF TAF LFMT
Valido dal 17 a 15 ore il 18 a 15 ore UTC


171400Z 1715/1815 16005KT 9999 BKN018
BECMG 1717/1720 31012KT CAVOK
ATIS : +33 4 67 13 11 70



MetMap, La meteo Aeronautica in un colpo d'occhio ! - Copyright ORBIFLY Dicembre 2007 - Disclaimer

ORBIFLY MET'MAP TEAM :

Programmazione e sviluppo : Alexandra Zaïnal
Concezione : Baudouin d'Aumeries
Aiuto per la programmazione : Marc-Olivier Méhu
Supporto tecnico e logistico : Manuel Goepfert
Aiuto per la traduzione : Arnaldo La Scala

Contatto : metmap@orbifly.com




FONTI E CREDITI :

   NOAA